sensor_id;sensor_type;location;lat;lon;timestamp;P1;durP1;ratioP1;P2;durP2;ratioP2
67696;SDS011;54486;51.442;6.778;2022-07-18T00:01:16;6.65;;;2.08;;
67696;SDS011;54486;51.442;6.778;2022-07-18T00:03:44;6.43;;;2.20;;
67696;SDS011;54486;51.442;6.778;2022-07-18T00:06:12;8.47;;;2.10;;
67696;SDS011;54486;51.442;6.778;2022-07-18T00:08:39;6.65;;;2.10;;
67696;SDS011;54486;51.442;6.778;2022-07-18T00:11:05;7.18;;;2.28;;
67696;SDS011;54486;51.442;6.778;2022-07-18T00:13:33;6.93;;;2.20;;
67696;SDS011;54486;51.442;6.778;2022-07-18T00:16:01;7.30;;;2.10;;
67696;SDS011;54486;51.442;6.778;2022-07-18T00:18:28;6.65;;;2.15;;
67696;SDS011;54486;51.442;6.778;2022-07-18T00:20:56;6.78;;;2.20;;
67696;SDS011;54486;51.442;6.778;2022-07-18T00:23:23;7.28;;;1.90;;
67696;SDS011;54486;51.442;6.778;2022-07-18T00:25:50;7.32;;;2.25;;
67696;SDS011;54486;51.442;6.778;2022-07-18T00:28:17;7.10;;;1.98;;
67696;SDS011;54486;51.442;6.778;2022-07-18T00:30:45;7.00;;;1.80;;
67696;SDS011;54486;51.442;6.778;2022-07-18T00:33:13;7.45;;;2.03;;
67696;SDS011;54486;51.442;6.778;2022-07-18T00:35:40;7.17;;;2.13;;
67696;SDS011;54486;51.442;6.778;2022-07-18T00:38:07;6.40;;;1.85;;
67696;SDS011;54486;51.442;6.778;2022-07-18T00:40:34;7.57;;;1.90;;
67696;SDS011;54486;51.442;6.778;2022-07-18T00:43:01;7.63;;;2.10;;
67696;SDS011;54486;51.442;6.778;2022-07-18T00:45:29;7.07;;;2.00;;
67696;SDS011;54486;51.442;6.778;2022-07-18T00:47:56;6.72;;;2.10;;
67696;SDS011;54486;51.442;6.778;2022-07-18T00:50:23;7.97;;;2.10;;
67696;SDS011;54486;51.442;6.778;2022-07-18T00:52:51;7.60;;;2.05;;
67696;SDS011;54486;51.442;6.778;2022-07-18T00:55:18;6.78;;;2.10;;
67696;SDS011;54486;51.442;6.778;2022-07-18T00:57:45;7.55;;;1.95;;
67696;SDS011;54486;51.442;6.778;2022-07-18T01:00:13;7.35;;;1.80;;
67696;SDS011;54486;51.442;6.778;2022-07-18T01:03:00;6.93;;;2.10;;
67696;SDS011;54486;51.442;6.778;2022-07-18T01:05:27;7.43;;;1.88;;
67696;SDS011;54486;51.442;6.778;2022-07-18T01:07:54;7.35;;;2.22;;
67696;SDS011;54486;51.442;6.778;2022-07-18T01:10:22;7.35;;;2.13;;
67696;SDS011;54486;51.442;6.778;2022-07-18T01:12:49;6.73;;;2.20;;
67696;SDS011;54486;51.442;6.778;2022-07-18T01:15:16;7.22;;;2.25;;
67696;SDS011;54486;51.442;6.778;2022-07-18T01:17:44;7.03;;;2.10;;
67696;SDS011;54486;51.442;6.778;2022-07-18T01:20:12;7.47;;;2.00;;
67696;SDS011;54486;51.442;6.778;2022-07-18T01:22:39;6.53;;;1.80;;
67696;SDS011;54486;51.442;6.778;2022-07-18T01:25:10;7.20;;;2.05;;
67696;SDS011;54486;51.442;6.778;2022-07-18T01:27:38;7.55;;;2.30;;
67696;SDS011;54486;51.442;6.778;2022-07-18T01:30:05;7.68;;;2.20;;
67696;SDS011;54486;51.442;6.778;2022-07-18T01:32:33;6.38;;;1.80;;
67696;SDS011;54486;51.442;6.778;2022-07-18T01:35:00;7.23;;;2.00;;
67696;SDS011;54486;51.442;6.778;2022-07-18T01:37:27;7.22;;;2.10;;
67696;SDS011;54486;51.442;6.778;2022-07-18T01:39:54;7.25;;;2.30;;
67696;SDS011;54486;51.442;6.778;2022-07-18T01:42:22;7.43;;;1.90;;
67696;SDS011;54486;51.442;6.778;2022-07-18T01:44:49;7.00;;;2.10;;
67696;SDS011;54486;51.442;6.778;2022-07-18T01:47:16;6.97;;;2.28;;
67696;SDS011;54486;51.442;6.778;2022-07-18T01:49:44;7.60;;;2.33;;
67696;SDS011;54486;51.442;6.778;2022-07-18T01:52:14;7.45;;;2.20;;
67696;SDS011;54486;51.442;6.778;2022-07-18T01:54:41;7.00;;;2.10;;
67696;SDS011;54486;51.442;6.778;2022-07-18T01:57:08;6.60;;;2.00;;
67696;SDS011;54486;51.442;6.778;2022-07-18T01:59:35;7.53;;;2.17;;
67696;SDS011;54486;51.442;6.778;2022-07-18T02:02:04;7.05;;;2.08;;
67696;SDS011;54486;51.442;6.778;2022-07-18T02:04:32;7.07;;;2.03;;
67696;SDS011;54486;51.442;6.778;2022-07-18T02:07:17;7.00;;;2.38;;
67696;SDS011;54486;51.442;6.778;2022-07-18T02:09:44;7.70;;;2.25;;
67696;SDS011;54486;51.442;6.778;2022-07-18T02:12:12;8.05;;;2.22;;
67696;SDS011;54486;51.442;6.778;2022-07-18T02:14:39;6.80;;;2.13;;
67696;SDS011;54486;51.442;6.778;2022-07-18T02:17:06;7.35;;;2.33;;
67696;SDS011;54486;51.442;6.778;2022-07-18T02:19:34;7.50;;;2.30;;
67696;SDS011;54486;51.442;6.778;2022-07-18T02:22:01;7.10;;;2.17;;
67696;SDS011;54486;51.442;6.778;2022-07-18T02:24:27;7.33;;;2.23;;
67696;SDS011;54486;51.442;6.778;2022-07-18T02:26:54;6.88;;;2.08;;
67696;SDS011;54486;51.442;6.778;2022-07-18T02:29:21;8.18;;;2.08;;
67696;SDS011;54486;51.442;6.778;2022-07-18T02:31:48;6.78;;;2.30;;
67696;SDS011;54486;51.442;6.778;2022-07-18T02:34:16;7.65;;;2.53;;
67696;SDS011;54486;51.442;6.778;2022-07-18T02:36:43;7.50;;;2.17;;
67696;SDS011;54486;51.442;6.778;2022-07-18T02:39:11;7.40;;;2.58;;
67696;SDS011;54486;51.442;6.778;2022-07-18T02:41:38;8.10;;;2.60;;
67696;SDS011;54486;51.442;6.778;2022-07-18T02:44:05;8.18;;;2.42;;
67696;SDS011;54486;51.442;6.778;2022-07-18T02:46:32;7.82;;;2.58;;
67696;SDS011;54486;51.442;6.778;2022-07-18T02:48:59;8.20;;;2.10;;
67696;SDS011;54486;51.442;6.778;2022-07-18T02:51:26;8.10;;;2.28;;
67696;SDS011;54486;51.442;6.778;2022-07-18T02:53:54;7.80;;;2.70;;
67696;SDS011;54486;51.442;6.778;2022-07-18T02:56:21;7.90;;;2.47;;
67696;SDS011;54486;51.442;6.778;2022-07-18T02:58:48;8.10;;;2.40;;
67696;SDS011;54486;51.442;6.778;2022-07-18T03:01:16;7.03;;;2.30;;
67696;SDS011;54486;51.442;6.778;2022-07-18T03:03:43;7.15;;;2.30;;
67696;SDS011;54486;51.442;6.778;2022-07-18T03:06:10;7.50;;;2.45;;
67696;SDS011;54486;51.442;6.778;2022-07-18T03:08:38;7.22;;;2.25;;
67696;SDS011;54486;51.442;6.778;2022-07-18T03:11:05;7.38;;;2.33;;
67696;SDS011;54486;51.442;6.778;2022-07-18T03:13:32;7.53;;;2.20;;
67696;SDS011;54486;51.442;6.778;2022-07-18T03:16:00;6.90;;;2.13;;
67696;SDS011;54486;51.442;6.778;2022-07-18T03:18:27;7.40;;;2.30;;
67696;SDS011;54486;51.442;6.778;2022-07-18T03:20:54;6.95;;;2.15;;
67696;SDS011;54486;51.442;6.778;2022-07-18T03:23:21;6.53;;;1.92;;
67696;SDS011;54486;51.442;6.778;2022-07-18T03:25:48;7.50;;;2.23;;
67696;SDS011;54486;51.442;6.778;2022-07-18T03:28:15;7.13;;;1.88;;
67696;SDS011;54486;51.442;6.778;2022-07-18T03:30:43;8.75;;;2.33;;
67696;SDS011;54486;51.442;6.778;2022-07-18T03:33:10;6.68;;;2.00;;
67696;SDS011;54486;51.442;6.778;2022-07-18T03:35:37;7.75;;;2.25;;
67696;SDS011;54486;51.442;6.778;2022-07-18T03:38:04;7.10;;;2.17;;
67696;SDS011;54486;51.442;6.778;2022-07-18T03:40:32;7.45;;;2.00;;
67696;SDS011;54486;51.442;6.778;2022-07-18T03:42:59;7.65;;;2.20;;
67696;SDS011;54486;51.442;6.778;2022-07-18T03:45:26;7.23;;;2.10;;
67696;SDS011;54486;51.442;6.778;2022-07-18T03:47:53;6.70;;;2.03;;
67696;SDS011;54486;51.442;6.778;2022-07-18T03:50:23;7.60;;;2.20;;
67696;SDS011;54486;51.442;6.778;2022-07-18T03:52:50;6.82;;;2.20;;
67696;SDS011;54486;51.442;6.778;2022-07-18T03:55:17;7.75;;;2.10;;
67696;SDS011;54486;51.442;6.778;2022-07-18T03:57:44;6.60;;;2.10;;
67696;SDS011;54486;51.442;6.778;2022-07-18T04:00:12;8.38;;;2.20;;
67696;SDS011;54486;51.442;6.778;2022-07-18T04:02:44;8.32;;;2.38;;
67696;SDS011;54486;51.442;6.778;2022-07-18T04:05:14;7.97;;;2.33;;
67696;SDS011;54486;51.442;6.778;2022-07-18T04:07:42;6.60;;;2.07;;
67696;SDS011;54486;51.442;6.778;2022-07-18T04:10:11;7.25;;;2.58;;
67696;SDS011;54486;51.442;6.778;2022-07-18T04:12:49;7.93;;;2.37;;
67696;SDS011;54486;51.442;6.778;2022-07-18T04:15:23;8.70;;;2.63;;
67696;SDS011;54486;51.442;6.778;2022-07-18T04:17:52;7.07;;;2.58;;
67696;SDS011;54486;51.442;6.778;2022-07-18T04:20:20;9.15;;;2.35;;
67696;SDS011;54486;51.442;6.778;2022-07-18T04:25:20;8.95;;;2.20;;
67696;SDS011;54486;51.442;6.778;2022-07-18T04:27:48;7.93;;;2.55;;
67696;SDS011;54486;51.442;6.778;2022-07-18T04:30:16;9.37;;;2.63;;
67696;SDS011;54486;51.442;6.778;2022-07-18T04:32:45;9.65;;;2.42;;
67696;SDS011;54486;51.442;6.778;2022-07-18T04:35:19;9.40;;;2.65;;
67696;SDS011;54486;51.442;6.778;2022-07-18T04:37:47;8.85;;;2.50;;
67696;SDS011;54486;51.442;6.778;2022-07-18T04:40:14;10.70;;;2.60;;
67696;SDS011;54486;51.442;6.778;2022-07-18T04:42:45;8.73;;;2.50;;
67696;SDS011;54486;51.442;6.778;2022-07-18T04:45:13;7.77;;;2.30;;
67696;SDS011;54486;51.442;6.778;2022-07-18T04:47:40;9.18;;;2.45;;
67696;SDS011;54486;51.442;6.778;2022-07-18T04:50:07;10.15;;;2.85;;
67696;SDS011;54486;51.442;6.778;2022-07-18T04:52:42;10.90;;;2.70;;
67696;SDS011;54486;51.442;6.778;2022-07-18T04:55:12;9.57;;;2.70;;
67696;SDS011;54486;51.442;6.778;2022-07-18T04:57:40;9.13;;;2.55;;
67696;SDS011;54486;51.442;6.778;2022-07-18T05:00:12;9.32;;;2.72;;
67696;SDS011;54486;51.442;6.778;2022-07-18T05:02:46;10.85;;;2.88;;
67696;SDS011;54486;51.442;6.778;2022-07-18T05:05:16;10.85;;;3.05;;
67696;SDS011;54486;51.442;6.778;2022-07-18T05:07:45;11.63;;;3.08;;
67696;SDS011;54486;51.442;6.778;2022-07-18T05:10:14;10.90;;;2.80;;
67696;SDS011;54486;51.442;6.778;2022-07-18T05:12:43;10.32;;;2.97;;
67696;SDS011;54486;51.442;6.778;2022-07-18T05:15:13;9.45;;;2.90;;
67696;SDS011;54486;51.442;6.778;2022-07-18T05:17:41;11.15;;;2.80;;
67696;SDS011;54486;51.442;6.778;2022-07-18T05:20:09;10.18;;;2.90;;
67696;SDS011;54486;51.442;6.778;2022-07-18T05:22:40;9.05;;;2.55;;
67696;SDS011;54486;51.442;6.778;2022-07-18T05:25:08;10.93;;;2.50;;
67696;SDS011;54486;51.442;6.778;2022-07-18T05:27:37;8.40;;;2.22;;
67696;SDS011;54486;51.442;6.778;2022-07-18T05:30:06;10.77;;;2.70;;
67696;SDS011;54486;51.442;6.778;2022-07-18T05:32:34;8.50;;;2.17;;
67696;SDS011;54486;51.442;6.778;2022-07-18T05:35:02;9.20;;;2.30;;
67696;SDS011;54486;51.442;6.778;2022-07-18T05:37:29;7.97;;;2.15;;
67696;SDS011;54486;51.442;6.778;2022-07-18T05:39:57;7.87;;;2.20;;
67696;SDS011;54486;51.442;6.778;2022-07-18T05:42:24;8.98;;;2.33;;
67696;SDS011;54486;51.442;6.778;2022-07-18T05:45:11;7.53;;;2.10;;
67696;SDS011;54486;51.442;6.778;2022-07-18T05:47:38;7.60;;;2.25;;
67696;SDS011;54486;51.442;6.778;2022-07-18T05:50:06;8.48;;;1.95;;
67696;SDS011;54486;51.442;6.778;2022-07-18T05:52:34;7.37;;;1.97;;
67696;SDS011;54486;51.442;6.778;2022-07-18T05:55:01;7.93;;;1.90;;
67696;SDS011;54486;51.442;6.778;2022-07-18T05:57:28;6.55;;;1.75;;
67696;SDS011;54486;51.442;6.778;2022-07-18T05:59:56;6.53;;;1.90;;
67696;SDS011;54486;51.442;6.778;2022-07-18T06:02:23;6.65;;;1.60;;
67696;SDS011;54486;51.442;6.778;2022-07-18T06:04:50;6.53;;;1.73;;
67696;SDS011;54486;51.442;6.778;2022-07-18T06:07:38;7.18;;;1.80;;
67696;SDS011;54486;51.442;6.778;2022-07-18T06:10:06;7.20;;;1.52;;
67696;SDS011;54486;51.442;6.778;2022-07-18T06:12:34;7.43;;;1.80;;
67696;SDS011;54486;51.442;6.778;2022-07-18T06:15:01;7.57;;;1.80;;
67696;SDS011;54486;51.442;6.778;2022-07-18T06:17:28;7.68;;;1.75;;
67696;SDS011;54486;51.442;6.778;2022-07-18T06:19:56;7.50;;;1.70;;
67696;SDS011;54486;51.442;6.778;2022-07-18T06:22:23;6.10;;;1.58;;
67696;SDS011;54486;51.442;6.778;2022-07-18T06:24:51;7.85;;;1.80;;
67696;SDS011;54486;51.442;6.778;2022-07-18T06:27:18;7.32;;;1.70;;
67696;SDS011;54486;51.442;6.778;2022-07-18T06:29:46;7.30;;;1.70;;
67696;SDS011;54486;51.442;6.778;2022-07-18T06:32:14;7.20;;;1.60;;
67696;SDS011;54486;51.442;6.778;2022-07-18T06:34:41;7.72;;;1.77;;
67696;SDS011;54486;51.442;6.778;2022-07-18T06:37:08;6.68;;;1.60;;
67696;SDS011;54486;51.442;6.778;2022-07-18T06:39:36;7.80;;;2.03;;
67696;SDS011;54486;51.442;6.778;2022-07-18T06:42:03;7.75;;;1.90;;
67696;SDS011;54486;51.442;6.778;2022-07-18T06:44:31;7.20;;;1.70;;
67696;SDS011;54486;51.442;6.778;2022-07-18T06:46:58;6.37;;;1.70;;
67696;SDS011;54486;51.442;6.778;2022-07-18T06:49:26;6.93;;;1.70;;
67696;SDS011;54486;51.442;6.778;2022-07-18T06:51:53;6.80;;;1.45;;
67696;SDS011;54486;51.442;6.778;2022-07-18T06:54:26;6.95;;;1.90;;
67696;SDS011;54486;51.442;6.778;2022-07-18T06:56:54;6.95;;;1.50;;
67696;SDS011;54486;51.442;6.778;2022-07-18T06:59:22;6.82;;;1.50;;
67696;SDS011;54486;51.442;6.778;2022-07-18T07:01:49;5.97;;;1.52;;
67696;SDS011;54486;51.442;6.778;2022-07-18T07:04:16;5.97;;;1.60;;
67696;SDS011;54486;51.442;6.778;2022-07-18T07:06:44;8.00;;;1.80;;
67696;SDS011;54486;51.442;6.778;2022-07-18T07:09:12;6.28;;;1.60;;
67696;SDS011;54486;51.442;6.778;2022-07-18T07:11:38;6.60;;;1.50;;
67696;SDS011;54486;51.442;6.778;2022-07-18T07:14:05;7.57;;;1.70;;
67696;SDS011;54486;51.442;6.778;2022-07-18T07:16:32;7.00;;;1.90;;
67696;SDS011;54486;51.442;6.778;2022-07-18T07:19:00;6.83;;;1.60;;
67696;SDS011;54486;51.442;6.778;2022-07-18T07:21:27;6.90;;;1.38;;
67696;SDS011;54486;51.442;6.778;2022-07-18T07:23:55;6.60;;;1.50;;
67696;SDS011;54486;51.442;6.778;2022-07-18T07:26:22;6.60;;;1.40;;
67696;SDS011;54486;51.442;6.778;2022-07-18T07:28:49;7.07;;;1.52;;
67696;SDS011;54486;51.442;6.778;2022-07-18T07:31:16;6.90;;;1.63;;
67696;SDS011;54486;51.442;6.778;2022-07-18T07:33:43;6.90;;;1.63;;
67696;SDS011;54486;51.442;6.778;2022-07-18T07:36:11;5.90;;;1.60;;
67696;SDS011;54486;51.442;6.778;2022-07-18T07:38:39;6.40;;;1.58;;
67696;SDS011;54486;51.442;6.778;2022-07-18T07:41:06;9.63;;;1.80;;
67696;SDS011;54486;51.442;6.778;2022-07-18T07:43:33;7.00;;;1.60;;
67696;SDS011;54486;51.442;6.778;2022-07-18T07:46:03;7.35;;;1.52;;
67696;SDS011;54486;51.442;6.778;2022-07-18T07:48:30;6.70;;;1.40;;
67696;SDS011;54486;51.442;6.778;2022-07-18T07:50:57;7.35;;;1.80;;
67696;SDS011;54486;51.442;6.778;2022-07-18T07:53:25;6.10;;;1.33;;
67696;SDS011;54486;51.442;6.778;2022-07-18T07:55:53;7.35;;;1.70;;
67696;SDS011;54486;51.442;6.778;2022-07-18T07:58:19;5.93;;;1.63;;
67696;SDS011;54486;51.442;6.778;2022-07-18T08:00:47;6.90;;;1.60;;
67696;SDS011;54486;51.442;6.778;2022-07-18T08:03:14;6.13;;;1.43;;
67696;SDS011;54486;51.442;6.778;2022-07-18T08:05:46;6.93;;;1.45;;
67696;SDS011;54486;51.442;6.778;2022-07-18T08:08:15;5.95;;;1.30;;
67696;SDS011;54486;51.442;6.778;2022-07-18T08:10:43;7.13;;;1.73;;
67696;SDS011;54486;51.442;6.778;2022-07-18T08:13:11;6.53;;;1.40;;
67696;SDS011;54486;51.442;6.778;2022-07-18T08:15:39;6.05;;;1.38;;
67696;SDS011;54486;51.442;6.778;2022-07-18T08:18:07;7.10;;;1.57;;
67696;SDS011;54486;51.442;6.778;2022-07-18T08:20:34;6.32;;;1.50;;
67696;SDS011;54486;51.442;6.778;2022-07-18T08:23:03;7.00;;;1.90;;
67696;SDS011;54486;51.442;6.778;2022-07-18T08:25:34;6.23;;;1.40;;
67696;SDS011;54486;51.442;6.778;2022-07-18T08:28:04;6.60;;;1.30;;
67696;SDS011;54486;51.442;6.778;2022-07-18T08:30:33;9.07;;;1.80;;
67696;SDS011;54486;51.442;6.778;2022-07-18T08:33:01;7.28;;;1.55;;
67696;SDS011;54486;51.442;6.778;2022-07-18T08:35:28;5.95;;;1.45;;
67696;SDS011;54486;51.442;6.778;2022-07-18T08:37:57;7.18;;;1.70;;
67696;SDS011;54486;51.442;6.778;2022-07-18T08:40:26;6.70;;;1.60;;
67696;SDS011;54486;51.442;6.778;2022-07-18T08:42:54;6.13;;;1.70;;
67696;SDS011;54486;51.442;6.778;2022-07-18T08:45:44;6.47;;;1.60;;
67696;SDS011;54486;51.442;6.778;2022-07-18T08:48:13;6.25;;;1.42;;
67696;SDS011;54486;51.442;6.778;2022-07-18T08:50:45;6.40;;;1.70;;
67696;SDS011;54486;51.442;6.778;2022-07-18T08:53:14;6.60;;;1.58;;
67696;SDS011;54486;51.442;6.778;2022-07-18T08:55:44;5.93;;;1.57;;
67696;SDS011;54486;51.442;6.778;2022-07-18T08:58:11;5.27;;;1.40;;
67696;SDS011;54486;51.442;6.778;2022-07-18T09:01:01;7.13;;;1.63;;
67696;SDS011;54486;51.442;6.778;2022-07-18T09:03:28;6.20;;;1.65;;
67696;SDS011;54486;51.442;6.778;2022-07-18T09:06:10;6.83;;;1.53;;
67696;SDS011;54486;51.442;6.778;2022-07-18T09:08:40;6.72;;;1.60;;
67696;SDS011;54486;51.442;6.778;2022-07-18T09:11:24;6.90;;;1.80;;
67696;SDS011;54486;51.442;6.778;2022-07-18T09:19:36;7.65;;;1.60;;
67696;SDS011;54486;51.442;6.778;2022-07-18T09:22:15;6.55;;;1.50;;
67696;SDS011;54486;51.442;6.778;2022-07-18T09:27:33;7.07;;;1.50;;
67696;SDS011;54486;51.442;6.778;2022-07-18T09:32:39;7.78;;;1.92;;
67696;SDS011;54486;51.442;6.778;2022-07-18T09:37:51;7.90;;;1.80;;
67696;SDS011;54486;51.442;6.778;2022-07-18T09:40:24;6.88;;;1.80;;
67696;SDS011;54486;51.442;6.778;2022-07-18T09:42:57;6.78;;;1.60;;
67696;SDS011;54486;51.442;6.778;2022-07-18T09:45:28;7.22;;;1.80;;
67696;SDS011;54486;51.442;6.778;2022-07-18T09:48:11;6.93;;;1.85;;
67696;SDS011;54486;51.442;6.778;2022-07-18T09:50:43;7.97;;;2.20;;
67696;SDS011;54486;51.442;6.778;2022-07-18T09:53:24;9.43;;;2.50;;
67696;SDS011;54486;51.442;6.778;2022-07-18T09:56:03;7.30;;;2.10;;
67696;SDS011;54486;51.442;6.778;2022-07-18T09:58:38;7.43;;;2.20;;
67696;SDS011;54486;51.442;6.778;2022-07-18T10:01:07;9.97;;;2.40;;
67696;SDS011;54486;51.442;6.778;2022-07-18T10:03:36;8.18;;;2.25;;
67696;SDS011;54486;51.442;6.778;2022-07-18T10:06:03;9.38;;;2.58;;
67696;SDS011;54486;51.442;6.778;2022-07-18T10:08:31;9.25;;;2.50;;
67696;SDS011;54486;51.442;6.778;2022-07-18T10:11:00;7.47;;;2.20;;
67696;SDS011;54486;51.442;6.778;2022-07-18T10:13:30;7.82;;;2.28;;
67696;SDS011;54486;51.442;6.778;2022-07-18T10:15:58;7.68;;;1.92;;
67696;SDS011;54486;51.442;6.778;2022-07-18T10:18:28;9.63;;;2.60;;
67696;SDS011;54486;51.442;6.778;2022-07-18T10:20:58;9.67;;;2.27;;
67696;SDS011;54486;51.442;6.778;2022-07-18T10:23:32;9.10;;;2.45;;
67696;SDS011;54486;51.442;6.778;2022-07-18T10:26:17;9.48;;;2.20;;
67696;SDS011;54486;51.442;6.778;2022-07-18T10:37:07;7.78;;;2.00;;
67696;SDS011;54486;51.442;6.778;2022-07-18T10:39:34;13.13;;;3.42;;
67696;SDS011;54486;51.442;6.778;2022-07-18T10:57:36;8.80;;;2.28;;
67696;SDS011;54486;51.442;6.778;2022-07-18T11:02:43;6.97;;;1.85;;
67696;SDS011;54486;51.442;6.778;2022-07-18T11:16:01;7.93;;;2.10;;
67696;SDS011;54486;51.442;6.778;2022-07-18T11:18:31;6.70;;;2.10;;
67696;SDS011;54486;51.442;6.778;2022-07-18T11:21:00;8.48;;;2.30;;
67696;SDS011;54486;51.442;6.778;2022-07-18T11:23:27;6.78;;;1.90;;
67696;SDS011;54486;51.442;6.778;2022-07-18T11:26:02;10.27;;;2.95;;
67696;SDS011;54486;51.442;6.778;2022-07-18T11:28:30;8.25;;;2.50;;
67696;SDS011;54486;51.442;6.778;2022-07-18T11:31:00;8.23;;;2.30;;
67696;SDS011;54486;51.442;6.778;2022-07-18T11:33:30;7.45;;;2.10;;
67696;SDS011;54486;51.442;6.778;2022-07-18T11:38:36;7.45;;;2.13;;
67696;SDS011;54486;51.442;6.778;2022-07-18T11:41:06;7.55;;;2.08;;
67696;SDS011;54486;51.442;6.778;2022-07-18T11:43:34;17.65;;;4.30;;
67696;SDS011;54486;51.442;6.778;2022-07-18T11:46:05;13.25;;;3.40;;
67696;SDS011;54486;51.442;6.778;2022-07-18T11:48:43;20.80;;;5.10;;
67696;SDS011;54486;51.442;6.778;2022-07-18T11:51:16;8.30;;;2.10;;
67696;SDS011;54486;51.442;6.778;2022-07-18T11:53:47;8.00;;;1.80;;
67696;SDS011;54486;51.442;6.778;2022-07-18T11:56:19;10.90;;;2.65;;
67696;SDS011;54486;51.442;6.778;2022-07-18T11:58:48;8.83;;;2.27;;
67696;SDS011;54486;51.442;6.778;2022-07-18T12:01:17;8.35;;;2.05;;
67696;SDS011;54486;51.442;6.778;2022-07-18T12:03:45;7.97;;;2.28;;
67696;SDS011;54486;51.442;6.778;2022-07-18T12:06:21;9.63;;;2.33;;
67696;SDS011;54486;51.442;6.778;2022-07-18T12:08:50;10.85;;;2.60;;
67696;SDS011;54486;51.442;6.778;2022-07-18T12:13:59;7.13;;;1.97;;
67696;SDS011;54486;51.442;6.778;2022-07-18T12:16:56;7.45;;;2.08;;
67696;SDS011;54486;51.442;6.778;2022-07-18T12:19:32;7.20;;;1.80;;
67696;SDS011;54486;51.442;6.778;2022-07-18T12:35:09;6.97;;;1.83;;
67696;SDS011;54486;51.442;6.778;2022-07-18T12:37:53;8.63;;;2.00;;
67696;SDS011;54486;51.442;6.778;2022-07-18T12:40:55;7.57;;;2.00;;
67696;SDS011;54486;51.442;6.778;2022-07-18T12:43:27;8.10;;;2.10;;
67696;SDS011;54486;51.442;6.778;2022-07-18T12:45:57;7.07;;;2.23;;
67696;SDS011;54486;51.442;6.778;2022-07-18T12:48:29;7.87;;;2.17;;
67696;SDS011;54486;51.442;6.778;2022-07-18T12:51:02;11.55;;;2.65;;
67696;SDS011;54486;51.442;6.778;2022-07-18T12:53:30;8.45;;;2.17;;
67696;SDS011;54486;51.442;6.778;2022-07-18T12:55:59;7.97;;;2.23;;
67696;SDS011;54486;51.442;6.778;2022-07-18T12:58:26;8.10;;;2.10;;
67696;SDS011;54486;51.442;6.778;2022-07-18T13:00:53;9.52;;;2.30;;
67696;SDS011;54486;51.442;6.778;2022-07-18T13:03:31;15.50;;;3.65;;
67696;SDS011;54486;51.442;6.778;2022-07-18T13:05:59;16.27;;;3.50;;
67696;SDS011;54486;51.442;6.778;2022-07-18T13:08:26;11.50;;;2.92;;
67696;SDS011;54486;51.442;6.778;2022-07-18T13:10:54;13.48;;;3.53;;
67696;SDS011;54486;51.442;6.778;2022-07-18T13:13:22;18.63;;;5.13;;
67696;SDS011;54486;51.442;6.778;2022-07-18T13:15:49;14.43;;;3.70;;
67696;SDS011;54486;51.442;6.778;2022-07-18T13:18:16;7.67;;;1.90;;
67696;SDS011;54486;51.442;6.778;2022-07-18T13:20:44;7.93;;;1.98;;
67696;SDS011;54486;51.442;6.778;2022-07-18T13:23:11;8.15;;;2.00;;
67696;SDS011;54486;51.442;6.778;2022-07-18T13:25:38;11.10;;;2.67;;
67696;SDS011;54486;51.442;6.778;2022-07-18T13:28:06;14.25;;;3.72;;
67696;SDS011;54486;51.442;6.778;2022-07-18T13:30:33;14.50;;;3.30;;
67696;SDS011;54486;51.442;6.778;2022-07-18T13:33:00;7.82;;;2.10;;
67696;SDS011;54486;51.442;6.778;2022-07-18T13:35:27;7.03;;;2.00;;
67696;SDS011;54486;51.442;6.778;2022-07-18T13:37:54;6.55;;;1.73;;
67696;SDS011;54486;51.442;6.778;2022-07-18T13:40:21;7.35;;;1.65;;
67696;SDS011;54486;51.442;6.778;2022-07-18T13:42:53;7.22;;;1.80;;
67696;SDS011;54486;51.442;6.778;2022-07-18T13:45:21;8.00;;;1.73;;
67696;SDS011;54486;51.442;6.778;2022-07-18T13:47:48;7.32;;;1.80;;
67696;SDS011;54486;51.442;6.778;2022-07-18T13:50:15;7.20;;;1.73;;
67696;SDS011;54486;51.442;6.778;2022-07-18T13:52:42;7.43;;;1.95;;
67696;SDS011;54486;51.442;6.778;2022-07-18T13:55:10;8.77;;;2.10;;
67696;SDS011;54486;51.442;6.778;2022-07-18T13:57:37;6.78;;;1.90;;
67696;SDS011;54486;51.442;6.778;2022-07-18T14:00:06;13.70;;;3.25;;
67696;SDS011;54486;51.442;6.778;2022-07-18T14:02:35;12.80;;;3.25;;
67696;SDS011;54486;51.442;6.778;2022-07-18T14:05:03;9.68;;;2.45;;
67696;SDS011;54486;51.442;6.778;2022-07-18T14:07:41;7.03;;;1.90;;
67696;SDS011;54486;51.442;6.778;2022-07-18T14:10:10;7.72;;;2.25;;
67696;SDS011;54486;51.442;6.778;2022-07-18T14:12:38;8.60;;;2.10;;
67696;SDS011;54486;51.442;6.778;2022-07-18T14:15:06;7.95;;;2.08;;
67696;SDS011;54486;51.442;6.778;2022-07-18T14:17:34;7.55;;;1.98;;
67696;SDS011;54486;51.442;6.778;2022-07-18T14:20:03;7.80;;;2.20;;
67696;SDS011;54486;51.442;6.778;2022-07-18T14:22:33;7.30;;;1.70;;
67696;SDS011;54486;51.442;6.778;2022-07-18T14:25:01;7.47;;;2.10;;
67696;SDS011;54486;51.442;6.778;2022-07-18T14:27:29;7.35;;;2.10;;
67696;SDS011;54486;51.442;6.778;2022-07-18T14:29:57;7.20;;;1.90;;
67696;SDS011;54486;51.442;6.778;2022-07-18T14:32:26;8.30;;;2.20;;
67696;SDS011;54486;51.442;6.778;2022-07-18T14:34:54;7.10;;;1.77;;
67696;SDS011;54486;51.442;6.778;2022-07-18T14:37:22;9.55;;;2.15;;
67696;SDS011;54486;51.442;6.778;2022-07-18T14:39:51;6.43;;;2.05;;
67696;SDS011;54486;51.442;6.778;2022-07-18T14:42:23;7.00;;;1.90;;
67696;SDS011;54486;51.442;6.778;2022-07-18T14:44:52;6.82;;;1.77;;
67696;SDS011;54486;51.442;6.778;2022-07-18T14:47:19;6.47;;;1.60;;
67696;SDS011;54486;51.442;6.778;2022-07-18T14:49:46;6.82;;;1.98;;
67696;SDS011;54486;51.442;6.778;2022-07-18T14:52:14;6.57;;;1.88;;
67696;SDS011;54486;51.442;6.778;2022-07-18T14:54:41;6.95;;;2.17;;
67696;SDS011;54486;51.442;6.778;2022-07-18T14:57:08;8.13;;;1.83;;
67696;SDS011;54486;51.442;6.778;2022-07-18T14:59:35;7.15;;;1.83;;
67696;SDS011;54486;51.442;6.778;2022-07-18T15:02:02;6.80;;;2.00;;
67696;SDS011;54486;51.442;6.778;2022-07-18T15:04:33;7.05;;;1.90;;
67696;SDS011;54486;51.442;6.778;2022-07-18T15:07:01;6.95;;;1.90;;
67696;SDS011;54486;51.442;6.778;2022-07-18T15:09:29;7.03;;;1.83;;
67696;SDS011;54486;51.442;6.778;2022-07-18T15:12:01;6.43;;;1.80;;
67696;SDS011;54486;51.442;6.778;2022-07-18T15:14:29;6.50;;;1.67;;
67696;SDS011;54486;51.442;6.778;2022-07-18T15:16:56;8.20;;;2.05;;
67696;SDS011;54486;51.442;6.778;2022-07-18T15:19:23;6.20;;;1.73;;
67696;SDS011;54486;51.442;6.778;2022-07-18T15:21:50;7.10;;;1.70;;
67696;SDS011;54486;51.442;6.778;2022-07-18T15:24:17;6.97;;;2.00;;
67696;SDS011;54486;51.442;6.778;2022-07-18T15:26:44;6.80;;;1.80;;
67696;SDS011;54486;51.442;6.778;2022-07-18T15:29:11;6.73;;;1.67;;
67696;SDS011;54486;51.442;6.778;2022-07-18T15:31:39;6.68;;;1.83;;
67696;SDS011;54486;51.442;6.778;2022-07-18T15:34:07;6.70;;;1.80;;
67696;SDS011;54486;51.442;6.778;2022-07-18T15:36:35;5.78;;;1.60;;
67696;SDS011;54486;51.442;6.778;2022-07-18T15:39:03;6.05;;;1.70;;
67696;SDS011;54486;51.442;6.778;2022-07-18T15:41:30;6.30;;;1.88;;
67696;SDS011;54486;51.442;6.778;2022-07-18T15:43:57;5.90;;;1.50;;
67696;SDS011;54486;51.442;6.778;2022-07-18T15:46:24;6.00;;;1.70;;
67696;SDS011;54486;51.442;6.778;2022-07-18T15:48:52;6.05;;;1.50;;
67696;SDS011;54486;51.442;6.778;2022-07-18T15:51:18;7.20;;;1.77;;
67696;SDS011;54486;51.442;6.778;2022-07-18T15:57:44;6.25;;;1.70;;
67696;SDS011;54486;51.442;6.778;2022-07-18T16:00:11;5.88;;;1.65;;
67696;SDS011;54486;51.442;6.778;2022-07-18T16:02:39;6.97;;;1.50;;
67696;SDS011;54486;51.442;6.778;2022-07-18T16:05:07;6.03;;;1.50;;
67696;SDS011;54486;51.442;6.778;2022-07-18T16:07:35;5.88;;;1.60;;
67696;SDS011;54486;51.442;6.778;2022-07-18T16:10:02;6.63;;;1.70;;
67696;SDS011;54486;51.442;6.778;2022-07-18T16:12:58;7.50;;;1.80;;